Time;durP1;ratioP1;P1;durP2;ratioP2;P2;SDS_P1;SDS_P2;PMS_P1;PMS_P2;Temp;Humidity;BMP_temperature;BMP_pressure;BME280_temperature;BME280_humidity;BME280_pressure;Samples;Min_cycle;Max_cycle;Signal;HPM_P1;HPM_P2
2021/12/25 00:00:45;;;;;;;;;;;21.80;32.80;;;;;;4959689;29;20443;-62
2021/12/25 00:03:11;;;;;;;;;;;21.80;32.80;;;;;;4959760;29;19945;-62
2021/12/25 00:05:36;;;;;;;;;;;21.80;32.80;;;;;;4959124;28;20402;-61
2021/12/25 00:08:01;;;;;;;;;;;21.80;32.80;;;;;;4959843;29;19945;-62
2021/12/25 00:10:30;;;;;;;;;;;21.80;32.80;;;;;;4959636;28;20275;-62
2021/12/25 00:12:56;;;;;;;;;;;21.80;32.80;;;;;;4959306;28;19933;-62
2021/12/25 00:15:21;;;;;;;;;;;21.80;32.80;;;;;;4959238;28;19918;-62
2021/12/25 00:17:47;;;;;;;;;;;21.80;32.80;;;;;;4959825;29;19911;-61
2021/12/25 00:20:12;;;;;;;;;;;21.80;32.70;;;;;;4958603;29;19994;-61
2021/12/25 00:22:39;;;;;;;;;;;21.80;32.70;;;;;;4959131;28;22212;-61
2021/12/25 00:25:05;;;;;;;;;;;21.80;32.70;;;;;;4990548;28;19918;-61
2021/12/25 00:34:52;;;;;;;;;;;21.80;32.70;;;;;;4959393;28;19914;-61
2021/12/25 00:37:18;;;;;;;;;;;21.80;32.60;;;;;;4990934;28;20001;-61
2021/12/25 00:39:43;;;;;;;;;;;21.80;32.60;;;;;;4959479;28;19962;-61
2021/12/25 00:42:09;;;;;;;;;;;21.80;32.60;;;;;;4959389;29;19910;-61
2021/12/25 00:44:35;;;;;;;;;;;21.80;32.60;;;;;;4955564;28;19915;-61
2021/12/25 00:47:00;;;;;;;;;;;21.80;33.20;;;;;;4957411;28;19958;-62
2021/12/25 00:49:26;;;;;;;;;;;21.80;32.60;;;;;;4987221;28;19923;-61
2021/12/25 00:51:51;;;;;;;;;;;21.80;32.80;;;;;;4950901;29;20363;-61
2021/12/25 00:54:16;;;;;;;;;;;21.80;33.00;;;;;;4946119;28;19922;-61
2021/12/25 00:56:42;;;;;;;;;;;21.70;33.00;;;;;;4974223;28;20009;-61
2021/12/25 00:59:07;;;;;;;;;;;21.70;33.10;;;;;;4936354;28;20279;-61
2021/12/25 01:01:33;;;;;;;;;;;21.70;33.20;;;;;;4950409;28;19914;-61
2021/12/25 01:03:59;;;;;;;;;;;21.70;33.20;;;;;;4955160;29;20248;-61
2021/12/25 01:06:25;;;;;;;;;;;21.70;33.30;;;;;;4953346;29;19932;-61
2021/12/25 01:08:50;;;;;;;;;;;21.70;33.30;;;;;;4944806;29;19915;-61
2021/12/25 01:11:16;;;;;;;;;;;21.70;33.30;;;;;;4950686;29;19927;-61
2021/12/25 01:13:54;;;;;;;;;;;21.70;33.50;;;;;;4947549;29;19915;-61
2021/12/25 01:19:06;;;;;;;;;;;21.70;33.50;;;;;;4951089;28;19919;-61
2021/12/25 01:21:55;;;;;;;;;;;21.70;33.50;;;;;;4958857;28;19942;-61
2021/12/25 01:24:45;;;;;;;;;;;21.70;33.60;;;;;;4936203;29;20363;-61
2021/12/25 01:30:07;;;;;;;;;;;21.70;33.60;;;;;;4978043;28;19918;-61
2021/12/25 01:33:02;;;;;;;;;;;21.70;33.60;;;;;;4954358;28;19957;-61
2021/12/25 01:48:52;;;;;;;;;;;21.70;33.80;;;;;;4956751;28;19924;-61
2021/12/25 01:51:18;;;;;;;;;;;21.70;33.70;;;;;;4936592;28;19922;-61
2021/12/25 01:53:43;;;;;;;;;;;21.70;33.70;;;;;;4942511;28;19993;-61
2021/12/25 01:56:08;;;;;;;;;;;21.70;33.80;;;;;;4967908;28;19915;-61
2021/12/25 01:58:34;;;;;;;;;;;21.70;33.80;;;;;;4952207;28;19992;-61
2021/12/25 02:01:00;;;;;;;;;;;21.70;33.70;;;;;;4971478;28;20490;-61
2021/12/25 02:03:26;;;;;;;;;;;21.70;33.80;;;;;;4945307;28;19924;-61
2021/12/25 02:05:52;;;;;;;;;;;21.70;33.80;;;;;;4942562;28;19923;-60
2021/12/25 02:08:17;;;;;;;;;;;21.70;33.80;;;;;;4972832;28;19936;-61
2021/12/25 02:10:42;;;;;;;;;;;21.70;33.80;;;;;;4934411;29;19915;-60
2021/12/25 02:13:09;;;;;;;;;;;21.60;33.80;;;;;;4934885;29;19919;-61
2021/12/25 02:15:35;;;;;;;;;;;21.60;33.80;;;;;;4950409;29;20275;-61
2021/12/25 02:20:38;;;;;;;;;;;21.60;33.80;;;;;;4959355;28;19917;-61
2021/12/25 02:23:11;;;;;;;;;;;21.60;33.80;;;;;;4944339;28;19922;-61
2021/12/25 02:25:36;;;;;;;;;;;21.60;33.80;;;;;;4953129;29;19917;-61
2021/12/25 02:28:05;;;;;;;;;;;21.60;33.80;;;;;;4949506;28;19914;-61
2021/12/25 02:30:30;;;;;;;;;;;21.60;33.70;;;;;;4953071;29;20010;-61
2021/12/25 02:32:58;;;;;;;;;;;21.60;33.80;;;;;;4969930;28;20009;-62
2021/12/25 02:35:24;;;;;;;;;;;21.60;34.00;;;;;;4933794;28;20291;-61
2021/12/25 02:37:49;;;;;;;;;;;21.60;33.90;;;;;;4941261;28;19934;-61
2021/12/25 02:40:14;;;;;;;;;;;21.60;33.80;;;;;;4938641;28;19915;-61
2021/12/25 02:42:40;;;;;;;;;;;21.60;33.80;;;;;;4940120;29;19914;-61
2021/12/25 02:45:06;;;;;;;;;;;21.50;34.00;;;;;;4959047;28;20286;-61
2021/12/25 02:47:31;;;;;;;;;;;21.40;34.10;;;;;;4967784;28;20354;-61
2021/12/25 02:49:57;;;;;;;;;;;21.30;34.20;;;;;;4942744;28;20052;-61
2021/12/25 02:52:22;;;;;;;;;;;21.30;34.40;;;;;;4942722;29;19915;-61
2021/12/25 02:54:48;;;;;;;;;;;21.30;34.40;;;;;;4939859;28;20621;-61
2021/12/25 02:57:13;;;;;;;;;;;21.30;34.20;;;;;;4946741;28;19946;-61
2021/12/25 02:59:39;;;;;;;;;;;21.40;34.30;;;;;;4934368;29;19911;-61
2021/12/25 03:02:05;;;;;;;;;;;21.40;34.30;;;;;;4934888;28;19941;-61
2021/12/25 03:04:31;;;;;;;;;;;21.40;34.10;;;;;;4973330;28;20368;-61
2021/12/25 03:06:56;;;;;;;;;;;21.50;34.10;;;;;;4940610;29;19934;-61
2021/12/25 03:09:22;;;;;;;;;;;21.50;34.00;;;;;;4951478;28;19977;-61
2021/12/25 03:11:47;;;;;;;;;;;21.60;34.00;;;;;;4946815;28;20418;-61
2021/12/25 03:14:30;;;;;;;;;;;21.60;33.90;;;;;;4947697;28;20587;-61
2021/12/25 03:16:56;;;;;;;;;;;21.60;33.90;;;;;;4953466;28;19942;-60
2021/12/25 03:19:28;;;;;;;;;;;21.50;33.90;;;;;;4933516;29;20360;-61
2021/12/25 03:21:54;;;;;;;;;;;21.60;34.00;;;;;;4946336;28;19919;-61
2021/12/25 03:24:19;;;;;;;;;;;21.60;33.90;;;;;;4936972;28;19914;-62
2021/12/25 03:26:45;;;;;;;;;;;21.60;33.80;;;;;;4940402;29;20311;-61
2021/12/25 03:29:10;;;;;;;;;;;21.60;33.80;;;;;;4939963;28;21935;-61
2021/12/25 03:31:36;;;;;;;;;;;21.60;33.80;;;;;;4952230;29;19918;-61
2021/12/25 03:34:01;;;;;;;;;;;21.60;33.90;;;;;;4947914;28;19918;-61
2021/12/25 03:36:27;;;;;;;;;;;21.60;33.80;;;;;;4975157;28;19914;-61
2021/12/25 03:38:53;;;;;;;;;;;21.60;33.80;;;;;;4981667;28;19914;-61
2021/12/25 03:41:18;;;;;;;;;;;21.60;33.80;;;;;;4952572;29;19915;-61
2021/12/25 03:43:44;;;;;;;;;;;21.60;33.80;;;;;;4949678;28;19933;-61
2021/12/25 03:46:10;;;;;;;;;;;21.60;33.70;;;;;;4950813;29;19915;-61
2021/12/25 03:59:11;;;;;;;;;;;21.60;33.70;;;;;;4934324;29;19938;-61
2021/12/25 04:04:17;;;;;;;;;;;21.60;33.70;;;;;;4932131;28;20331;-61
2021/12/25 04:06:47;;;;;;;;;;;21.60;33.80;;;;;;4950938;29;19945;-61
2021/12/25 04:09:25;;;;;;;;;;;21.60;33.80;;;;;;4937554;29;20323;-61
2021/12/25 04:11:50;;;;;;;;;;;21.60;33.80;;;;;;4936564;28;20391;-61
2021/12/25 04:14:16;;;;;;;;;;;21.60;33.80;;;;;;4955857;28;19969;-61
2021/12/25 04:16:41;;;;;;;;;;;21.60;33.70;;;;;;4964763;28;19919;-60
2021/12/25 04:19:07;;;;;;;;;;;21.60;33.80;;;;;;4933151;29;19911;-61
2021/12/25 04:21:34;;;;;;;;;;;21.60;33.80;;;;;;4934155;29;20382;-61
2021/12/25 04:24:00;;;;;;;;;;;21.60;33.80;;;;;;4950778;28;20589;-61
2021/12/25 04:26:26;;;;;;;;;;;21.40;33.80;;;;;;4955833;29;19922;-61
2021/12/25 04:29:15;;;;;;;;;;;21.30;34.00;;;;;;4962432;28;20417;-61
2021/12/25 04:32:09;;;;;;;;;;;21.10;34.30;;;;;;4937129;28;19925;-61
2021/12/25 05:04:41;;;;;;;;;;;21.50;33.80;;;;;;4944031;28;19930;-61
2021/12/25 05:07:07;;;;;;;;;;;21.60;34.30;;;;;;4943319;29;19922;-61
2021/12/25 05:09:32;;;;;;;;;;;21.60;33.50;;;;;;4945490;28;19922;-61
2021/12/25 05:11:58;;;;;;;;;;;21.60;33.50;;;;;;4945228;29;19917;-61
2021/12/25 05:14:23;;;;;;;;;;;21.60;33.50;;;;;;4945640;29;19951;-60
2021/12/25 05:16:48;;;;;;;;;;;21.60;33.50;;;;;;4946381;28;20038;-61
2021/12/25 05:19:14;;;;;;;;;;;21.60;33.50;;;;;;4974741;28;19922;-61
2021/12/25 05:21:39;;;;;;;;;;;21.60;33.50;;;;;;4947529;29;19915;-62
2021/12/25 05:24:06;;;;;;;;;;;21.60;33.50;;;;;;4946748;29;19917;-61
2021/12/25 05:26:31;;;;;;;;;;;21.60;33.60;;;;;;4977533;28;19915;-61
2021/12/25 05:28:59;;;;;;;;;;;21.60;33.60;;;;;;4942062;29;19930;-61
2021/12/25 05:31:25;;;;;;;;;;;21.50;33.60;;;;;;4942811;28;19918;-61
2021/12/25 05:33:50;;;;;;;;;;;21.50;33.50;;;;;;4947023;28;19921;-61
2021/12/25 05:36:16;;;;;;;;;;;21.50;33.60;;;;;;4946805;29;19933;-61
2021/12/25 05:38:41;;;;;;;;;;;21.50;33.60;;;;;;4946537;29;19969;-61
2021/12/25 05:41:07;;;;;;;;;;;21.50;33.60;;;;;;4974935;28;19962;-61
2021/12/25 05:43:32;;;;;;;;;;;21.50;33.60;;;;;;4944178;29;19915;-61
2021/12/25 05:45:57;;;;;;;;;;;21.50;33.60;;;;;;4947042;29;19997;-61
2021/12/25 05:48:23;;;;;;;;;;;21.50;33.60;;;;;;4947512;28;20342;-61
2021/12/25 05:50:48;;;;;;;;;;;21.50;33.60;;;;;;4946407;28;19922;-61
2021/12/25 05:53:14;;;;;;;;;;;21.40;33.50;;;;;;4943465;28;19911;-61
2021/12/25 05:55:39;;;;;;;;;;;21.40;33.60;;;;;;4947750;29;19914;-61
2021/12/25 05:58:07;;;;;;;;;;;21.50;33.70;;;;;;4945711;29;20017;-61
2021/12/25 06:00:33;;;;;;;;;;;21.50;33.70;;;;;;4945851;28;19953;-61
2021/12/25 06:02:58;;;;;;;;;;;21.50;33.60;;;;;;4947560;28;19985;-61
2021/12/25 06:05:24;;;;;;;;;;;21.50;33.60;;;;;;4944206;29;19938;-61
2021/12/25 06:07:49;;;;;;;;;;;21.50;33.60;;;;;;4944310;29;19938;-61
2021/12/25 06:10:15;;;;;;;;;;;21.50;33.60;;;;;;4981158;28;20359;-61
2021/12/25 06:12:41;;;;;;;;;;;21.50;33.60;;;;;;4941031;29;19915;-61
2021/12/25 06:15:07;;;;;;;;;;;21.50;33.50;;;;;;4947838;29;19969;-61
2021/12/25 06:17:32;;;;;;;;;;;21.50;33.50;;;;;;4954448;28;19914;-62
2021/12/25 06:19:58;;;;;;;;;;;21.50;33.50;;;;;;4953996;29;19910;-61
2021/12/25 06:22:23;;;;;;;;;;;21.50;33.50;;;;;;4953806;29;19923;-61
2021/12/25 06:24:49;;;;;;;;;;;21.50;33.50;;;;;;4953554;29;20003;-61
2021/12/25 06:27:16;;;;;;;;;;;21.50;33.50;;;;;;4958431;28;19968;-61
2021/12/25 06:29:41;;;;;;;;;;;21.50;33.40;;;;;;4954395;28;19926;-61
2021/12/25 06:32:07;;;;;;;;;;;21.50;33.50;;;;;;4969006;28;19918;-61
2021/12/25 06:34:32;;;;;;;;;;;21.50;33.40;;;;;;4985617;28;19918;-61
2021/12/25 06:36:58;;;;;;;;;;;21.50;34.10;;;;;;4953819;29;19910;-61
2021/12/25 06:39:23;;;;;;;;;;;21.50;33.50;;;;;;4970980;28;19985;-61
2021/12/25 06:41:49;;;;;;;;;;;21.50;33.40;;;;;;4953889;29;19926;-61
2021/12/25 06:44:14;;;;;;;;;;;21.50;33.50;;;;;;4953317;28;19921;-62
2021/12/25 06:46:40;;;;;;;;;;;21.50;33.50;;;;;;4953539;29;20327;-61
2021/12/25 06:49:05;;;;;;;;;;;21.50;33.50;;;;;;4951845;28;19926;-60
2021/12/25 06:51:34;;;;;;;;;;;21.50;33.50;;;;;;4946515;28;19973;-61
2021/12/25 06:54:00;;;;;;;;;;;21.50;33.50;;;;;;4952220;28;20009;-61
2021/12/25 06:56:25;;;;;;;;;;;21.40;33.40;;;;;;4947021;28;20235;-61
2021/12/25 06:58:51;;;;;;;;;;;21.40;33.50;;;;;;4939419;28;19930;-61
2021/12/25 07:01:16;;;;;;;;;;;21.40;33.40;;;;;;4949656;29;19914;-61
2021/12/25 07:03:42;;;;;;;;;;;21.40;33.50;;;;;;4979932;28;19921;-61
2021/12/25 07:06:07;;;;;;;;;;;21.40;33.50;;;;;;4940569;29;20365;-62
2021/12/25 07:08:33;;;;;;;;;;;21.40;33.50;;;;;;4951348;28;19921;-61
2021/12/25 07:10:58;;;;;;;;;;;21.40;33.50;;;;;;4952923;29;19922;-61
2021/12/25 07:13:24;;;;;;;;;;;21.40;34.30;;;;;;4945175;29;20092;-61
2021/12/25 07:15:49;;;;;;;;;;;21.30;33.50;;;;;;4949166;29;20014;-61
2021/12/25 07:18:15;;;;;;;;;;;21.30;33.60;;;;;;4948466;29;19962;-61
2021/12/25 07:20:40;;;;;;;;;;;21.30;34.30;;;;;;4953598;28;19918;-61
2021/12/25 07:23:06;;;;;;;;;;;21.30;33.60;;;;;;4953389;29;19926;-61
2021/12/25 07:25:31;;;;;;;;;;;21.40;33.70;;;;;;4981187;28;19914;-61
2021/12/25 07:27:57;;;;;;;;;;;21.40;33.70;;;;;;4935079;29;20354;-62
2021/12/25 07:30:22;;;;;;;;;;;21.40;33.70;;;;;;4935786;29;19918;-62
2021/12/25 07:32:48;;;;;;;;;;;21.40;33.60;;;;;;4939236;29;19919;-61
2021/12/25 07:35:13;;;;;;;;;;;21.40;33.50;;;;;;4935414;29;19919;-61
2021/12/25 07:37:38;;;;;;;;;;;21.40;33.50;;;;;;4941842;28;20072;-61
2021/12/25 07:40:04;;;;;;;;;;;21.40;33.50;;;;;;4941539;29;19942;-61
2021/12/25 07:42:30;;;;;;;;;;;21.40;33.50;;;;;;4943647;29;20006;-61
2021/12/25 07:45:02;;;;;;;;;;;21.40;33.40;;;;;;4940753;29;19994;-61
2021/12/25 07:47:28;;;;;;;;;;;21.50;33.60;;;;;;4974179;28;20023;-61
2021/12/25 07:49:56;;;;;;;;;;;21.50;33.50;;;;;;4946280;29;20013;-61
2021/12/25 07:52:22;;;;;;;;;;;21.50;33.50;;;;;;4950666;28;19995;-61
2021/12/25 07:54:47;;;;;;;;;;;21.40;33.40;;;;;;4951025;29;20379;-61
2021/12/25 07:57:13;;;;;;;;;;;21.40;33.40;;;;;;4953402;28;20346;-61
2021/12/25 07:59:38;;;;;;;;;;;21.40;33.40;;;;;;4957539;29;20021;-61
2021/12/25 08:02:04;;;;;;;;;;;21.40;33.40;;;;;;4953235;29;19919;-60
2021/12/25 08:04:29;;;;;;;;;;;21.40;33.40;;;;;;4955993;29;19914;-61
2021/12/25 08:06:54;;;;;;;;;;;21.40;33.30;;;;;;4956556;29;19910;-60
2021/12/25 08:09:28;;;;;;;;;;;21.40;33.40;;;;;;4956687;29;19934;-61
2021/12/25 08:11:54;;;;;;;;;;;21.40;33.40;;;;;;4956304;28;19990;-60
2021/12/25 08:14:21;;;;;;;;;;;21.40;33.40;;;;;;4982749;28;19918;-62
2021/12/25 08:16:47;;;;;;;;;;;21.40;33.40;;;;;;4956906;29;19918;-61
2021/12/25 08:19:12;;;;;;;;;;;21.40;33.30;;;;;;4955704;29;19920;-61
2021/12/25 08:21:37;;;;;;;;;;;21.40;33.40;;;;;;4955167;29;19957;-61
2021/12/25 08:24:03;;;;;;;;;;;21.40;33.30;;;;;;4958439;28;19926;-61
2021/12/25 08:26:28;;;;;;;;;;;21.40;33.40;;;;;;4956729;28;19922;-61
2021/12/25 08:28:54;;;;;;;;;;;21.40;33.30;;;;;;4956525;29;20335;-61
2021/12/25 08:31:19;;;;;;;;;;;21.40;33.30;;;;;;4956429;29;20015;-61
2021/12/25 08:33:45;;;;;;;;;;;21.40;33.30;;;;;;4956548;29;19915;-61
2021/12/25 08:36:10;;;;;;;;;;;21.40;33.30;;;;;;4956008;29;20318;-61
2021/12/25 08:38:36;;;;;;;;;;;21.40;33.30;;;;;;4954103;29;19918;-61
2021/12/25 08:41:01;;;;;;;;;;;21.40;33.30;;;;;;4946595;29;19918;-61
2021/12/25 08:43:33;;;;;;;;;;;21.40;33.40;;;;;;4956076;29;19921;-61
2021/12/25 08:46:10;;;;;;;;;;;21.40;33.40;;;;;;4954812;28;19921;-61
2021/12/25 08:48:36;;;;;;;;;;;21.40;33.40;;;;;;4948789;29;19914;-61
2021/12/25 08:51:01;;;;;;;;;;;21.40;33.40;;;;;;4944064;29;19919;-61
2021/12/25 08:53:27;;;;;;;;;;;21.30;33.30;;;;;;4978036;28;19915;-61
2021/12/25 08:55:54;;;;;;;;;;;21.30;33.30;;;;;;4978992;28;19918;-60
2021/12/25 08:58:19;;;;;;;;;;;21.40;33.40;;;;;;4978070;28;19978;-61
2021/12/25 09:00:45;;;;;;;;;;;21.40;33.40;;;;;;4944596;29;20399;-61
2021/12/25 09:03:11;;;;;;;;;;;21.40;33.40;;;;;;4948605;29;19914;-61
2021/12/25 09:05:36;;;;;;;;;;;21.40;33.30;;;;;;4946492;28;19942;-61
2021/12/25 09:08:02;;;;;;;;;;;21.40;33.20;;;;;;4946881;29;19941;-61
2021/12/25 09:10:30;;;;;;;;;;;21.40;33.20;;;;;;4947408;29;19922;-61
2021/12/25 09:12:56;;;;;;;;;;;21.40;33.30;;;;;;4945984;29;19930;-61
2021/12/25 09:15:21;;;;;;;;;;;21.40;33.20;;;;;;4946406;28;19918;-60
2021/12/25 09:17:47;;;;;;;;;;;21.40;33.10;;;;;;4948397;29;19914;-60
2021/12/25 09:20:13;;;;;;;;;;;21.40;32.90;;;;;;4945317;29;19922;-60
2021/12/25 09:22:39;;;;;;;;;;;21.40;32.90;;;;;;4947565;28;19977;-61
2021/12/25 09:25:04;;;;;;;;;;;21.50;32.90;;;;;;4947877;29;19922;-61
2021/12/25 09:27:30;;;;;;;;;;;21.40;32.80;;;;;;4946026;28;20005;-61
2021/12/25 09:29:55;;;;;;;;;;;21.50;32.90;;;;;;4944748;29;19919;-60
2021/12/25 09:32:21;;;;;;;;;;;21.50;32.80;;;;;;4946310;29;19932;-60
2021/12/25 09:34:46;;;;;;;;;;;21.50;32.70;;;;;;4944741;29;20402;-61
2021/12/25 09:37:12;;;;;;;;;;;21.50;32.60;;;;;;4946084;28;19914;-60
2021/12/25 09:39:38;;;;;;;;;;;21.50;32.60;;;;;;4946262;28;19922;-61
2021/12/25 09:42:03;;;;;;;;;;;21.50;32.60;;;;;;4954409;29;20378;-61
2021/12/25 09:44:29;;;;;;;;;;;21.50;32.50;;;;;;4980499;28;20169;-62
2021/12/25 09:46:54;;;;;;;;;;;21.50;32.50;;;;;;4935060;29;19933;-61
2021/12/25 09:49:20;;;;;;;;;;;21.50;32.40;;;;;;4953889;29;19910;-61
2021/12/25 09:51:45;;;;;;;;;;;21.50;32.40;;;;;;4948998;29;19922;-61
2021/12/25 09:54:11;;;;;;;;;;;21.50;32.30;;;;;;4951353;29;19965;-61
2021/12/25 09:56:37;;;;;;;;;;;21.50;32.40;;;;;;4984988;28;19925;-60
2021/12/25 09:59:03;;;;;;;;;;;21.50;32.20;;;;;;4941388;29;19969;-61
2021/12/25 10:01:41;;;;;;;;;;;21.50;32.20;;;;;;4950918;28;19923;-61
2021/12/25 10:04:08;;;;;;;;;;;21.50;32.20;;;;;;4948507;28;19925;-61
2021/12/25 10:06:34;;;;;;;;;;;21.50;32.10;;;;;;4945778;29;19930;-60
2021/12/25 10:09:13;;;;;;;;;;;21.50;32.10;;;;;;4947915;28;19919;-61
2021/12/25 10:11:53;;;;;;;;;;;21.50;32.00;;;;;;4952960;29;20335;-61
2021/12/25 10:14:18;;;;;;;;;;;21.50;31.90;;;;;;4968425;28;20479;-61
2021/12/25 10:16:44;;;;;;;;;;;21.50;32.60;;;;;;4942848;28;19918;-61
2021/12/25 10:19:13;;;;;;;;;;;21.50;31.90;;;;;;4951927;28;19934;-61
2021/12/25 10:21:39;;;;;;;;;;;21.50;31.90;;;;;;4945664;29;19922;-61
2021/12/25 10:24:07;;;;;;;;;;;21.50;31.80;;;;;;4946102;29;19930;-61
2021/12/25 10:26:33;;;;;;;;;;;21.50;31.80;;;;;;4949882;28;19915;-61
2021/12/25 10:28:59;;;;;;;;;;;21.50;31.80;;;;;;4948286;28;19919;-61
2021/12/25 10:31:31;;;;;;;;;;;21.50;31.70;;;;;;4945931;29;19926;-61
2021/12/25 10:33:57;;;;;;;;;;;21.50;31.70;;;;;;4944446;29;19953;-61
2021/12/25 10:36:24;;;;;;;;;;;21.50;31.60;;;;;;4933441;29;20552;-60
2021/12/25 10:39:04;;;;;;;;;;;21.50;31.70;;;;;;4942943;29;19989;-60
2021/12/25 10:41:29;;;;;;;;;;;21.50;31.60;;;;;;5000427;28;19916;-61
2021/12/25 10:44:14;;;;;;;;;;;21.50;31.60;;;;;;4949081;29;20408;-61
2021/12/25 10:46:59;;;;;;;;;;;21.50;31.60;;;;;;4943513;28;20008;-61
2021/12/25 10:49:25;;;;;;;;;;;21.50;31.60;;;;;;4944055;28;20414;-61
2021/12/25 10:51:51;;;;;;;;;;;21.50;31.60;;;;;;4940916;28;19918;-61
2021/12/25 10:54:18;;;;;;;;;;;21.50;31.50;;;;;;4961016;28;19922;-61
2021/12/25 10:56:44;;;;;;;;;;;21.50;31.50;;;;;;4945404;28;19921;-61
2021/12/25 10:59:11;;;;;;;;;;;21.50;31.50;;;;;;4942360;28;19918;-61
2021/12/25 11:01:38;;;;;;;;;;;21.50;31.60;;;;;;4941813;28;20290;-61
2021/12/25 11:04:04;;;;;;;;;;;21.50;31.60;;;;;;4948380;28;19915;-61
2021/12/25 11:06:29;;;;;;;;;;;21.50;31.60;;;;;;4948710;28;19949;-61
2021/12/25 11:08:54;;;;;;;;;;;21.50;31.50;;;;;;4952937;29;20359;-61
2021/12/25 11:11:20;;;;;;;;;;;21.50;31.50;;;;;;4967718;28;20351;-61
2021/12/25 11:13:50;;;;;;;;;;;21.50;31.40;;;;;;4935874;29;20355;-61
2021/12/25 11:16:23;;;;;;;;;;;21.50;31.30;;;;;;4936878;28;19918;-61
2021/12/25 11:18:53;;;;;;;;;;;21.50;31.40;;;;;;4946786;28;20281;-61
2021/12/25 11:21:19;;;;;;;;;;;21.50;31.30;;;;;;4937678;28;19948;-61
2021/12/25 11:23:46;;;;;;;;;;;21.50;31.30;;;;;;4953257;29;19942;-61
2021/12/25 11:26:12;;;;;;;;;;;21.50;31.30;;;;;;4952497;29;20355;-61
2021/12/25 11:28:38;;;;;;;;;;;21.50;31.40;;;;;;4947716;29;20354;-61
2021/12/25 11:31:03;;;;;;;;;;;21.50;31.30;;;;;;4971214;28;19923;-61
2021/12/25 11:33:29;;;;;;;;;;;21.50;31.60;;;;;;4974156;28;19918;-61
2021/12/25 11:35:54;;;;;;;;;;;21.60;31.40;;;;;;4942555;29;20379;-60
2021/12/25 11:38:19;;;;;;;;;;;21.60;31.30;;;;;;4941211;29;20348;-61
2021/12/25 11:40:51;;;;;;;;;;;21.60;31.30;;;;;;4939729;29;20159;-62
2021/12/25 11:43:22;;;;;;;;;;;21.60;31.30;;;;;;4947871;28;20351;-61
2021/12/25 11:45:49;;;;;;;;;;;21.60;31.30;;;;;;4979407;28;20014;-61
2021/12/25 11:48:20;;;;;;;;;;;21.60;31.30;;;;;;4952654;29;19914;-61
2021/12/25 11:50:47;;;;;;;;;;;21.60;31.30;;;;;;4944091;28;19919;-61
2021/12/25 11:53:21;;;;;;;;;;;21.60;31.30;;;;;;4933582;29;19911;-61
2021/12/25 11:56:13;;;;;;;;;;;21.60;31.30;;;;;;4939642;29;19918;-61
2021/12/25 11:58:41;;;;;;;;;;;21.60;31.30;;;;;;4950680;28;19915;-61
2021/12/25 12:01:19;;;;;;;;;;;21.60;31.30;;;;;;4951109;28;20361;-63
2021/12/25 12:03:46;;;;;;;;;;;21.60;31.40;;;;;;4966021;28;19914;-61
2021/12/25 12:06:13;;;;;;;;;;;21.60;31.40;;;;;;4947863;28;20012;-61
2021/12/25 12:08:53;;;;;;;;;;;21.60;31.30;;;;;;4952402;29;20367;-61
2021/12/25 12:11:25;;;;;;;;;;;21.60;31.20;;;;;;4952271;29;19940;-61
2021/12/25 12:14:09;;;;;;;;;;;21.60;31.30;;;;;;4946488;28;21418;-61
2021/12/25 12:16:36;;;;;;;;;;;21.60;31.20;;;;;;4950023;29;19933;-61
2021/12/25 12:19:01;;;;;;;;;;;21.60;31.30;;;;;;4945463;28;20005;-61
2021/12/25 12:21:34;;;;;;;;;;;21.60;31.30;;;;;;4937728;28;20048;-61
2021/12/25 12:26:49;;;;;;;;;;;21.60;31.30;;;;;;4977666;28;19953;-61
2021/12/25 12:29:15;;;;;;;;;;;21.70;31.40;;;;;;4951874;29;19922;-61
2021/12/25 12:31:41;;;;;;;;;;;21.70;31.40;;;;;;4944964;29;19938;-62
2021/12/25 12:34:31;;;;;;;;;;;21.70;32.20;;;;;;4945027;29;19922;-62
2021/12/25 12:37:14;;;;;;;;;;;21.70;31.60;;;;;;4948784;28;20019;-61
2021/12/25 12:39:40;;;;;;;;;;;21.70;31.60;;;;;;4950853;28;19910;-61
2021/12/25 12:42:08;;;;;;;;;;;21.70;31.70;;;;;;4958797;28;19970;-61
2021/12/25 12:44:36;;;;;;;;;;;21.70;31.70;;;;;;4978547;28;19923;-61
2021/12/25 12:47:14;;;;;;;;;;;21.70;31.90;;;;;;4953750;29;20278;-61
2021/12/25 12:49:45;;;;;;;;;;;21.70;31.90;;;;;;4948727;29;19961;-61
2021/12/25 12:52:17;;;;;;;;;;;21.60;31.90;;;;;;4948276;29;19957;-62
2021/12/25 12:54:52;;;;;;;;;;;21.70;32.10;;;;;;4945190;28;19914;-61
2021/12/25 12:57:22;;;;;;;;;;;21.60;32.00;;;;;;4947977;28;19946;-61
2021/12/25 12:59:52;;;;;;;;;;;21.60;32.00;;;;;;4986277;28;20001;-62
2021/12/25 13:02:18;;;;;;;;;;;21.70;32.20;;;;;;4943409;28;19914;-61
2021/12/25 13:04:44;;;;;;;;;;;21.70;32.20;;;;;;4936142;29;19927;-62
2021/12/25 13:07:13;;;;;;;;;;;21.70;32.20;;;;;;4952961;29;19925;-61
2021/12/25 13:09:44;;;;;;;;;;;21.70;32.20;;;;;;4949396;28;19961;-61
2021/12/25 13:12:20;;;;;;;;;;;21.70;32.20;;;;;;4959993;28;19919;-61
2021/12/25 13:14:56;;;;;;;;;;;21.70;32.20;;;;;;4983314;28;19923;-61
2021/12/25 13:17:21;;;;;;;;;;;21.70;32.20;;;;;;4951999;28;19966;-61
2021/12/25 13:19:47;;;;;;;;;;;21.70;32.30;;;;;;4953919;29;19922;-61
2021/12/25 13:22:12;;;;;;;;;;;21.70;32.40;;;;;;4984320;28;19910;-61
2021/12/25 13:24:38;;;;;;;;;;;21.70;32.50;;;;;;4949597;29;19965;-61
2021/12/25 13:27:03;;;;;;;;;;;21.70;32.50;;;;;;4948378;28;20079;-61
2021/12/25 13:29:29;;;;;;;;;;;21.70;32.50;;;;;;4954994;29;19915;-61
2021/12/25 13:31:54;;;;;;;;;;;21.70;32.60;;;;;;4968935;28;19953;-61
2021/12/25 13:34:21;;;;;;;;;;;21.70;32.60;;;;;;4954510;29;19911;-61
2021/12/25 13:36:49;;;;;;;;;;;21.70;32.80;;;;;;4968660;28;20398;-61
2021/12/25 13:39:16;;;;;;;;;;;21.70;32.80;;;;;;4954515;28;19915;-61
2021/12/25 13:41:45;;;;;;;;;;;21.70;32.90;;;;;;4949127;28;19914;-62
2021/12/25 13:44:24;;;;;;;;;;;21.60;32.90;;;;;;4949883;29;20356;-61
2021/12/25 13:46:52;;;;;;;;;;;21.60;32.90;;;;;;4964322;28;19918;-61
2021/12/25 13:49:34;;;;;;;;;;;21.60;33.00;;;;;;4954361;29;19921;-61
2021/12/25 13:52:11;;;;;;;;;;;21.70;33.80;;;;;;4937430;29;19989;-62
2021/12/25 13:54:38;;;;;;;;;;;21.70;33.20;;;;;;4934492;29;19914;-61
2021/12/25 13:57:04;;;;;;;;;;;21.70;33.20;;;;;;4947927;29;19957;-61
2021/12/25 13:59:29;;;;;;;;;;;21.70;33.20;;;;;;4980843;28;19969;-61
2021/12/25 14:02:00;;;;;;;;;;;21.70;33.30;;;;;;4942509;28;19922;-62
2021/12/25 14:04:26;;;;;;;;;;;21.70;33.30;;;;;;4944684;28;20533;-61
2021/12/25 14:06:51;;;;;;;;;;;21.70;33.40;;;;;;4943849;28;19954;-61
2021/12/25 14:09:17;;;;;;;;;;;21.70;33.40;;;;;;4945935;29;19919;-61
2021/12/25 14:11:52;;;;;;;;;;;21.70;33.50;;;;;;4942303;28;19923;-61
2021/12/25 14:14:20;;;;;;;;;;;21.70;33.50;;;;;;4943433;28;19919;-61
2021/12/25 14:16:46;;;;;;;;;;;21.70;33.60;;;;;;4942771;29;19937;-61
2021/12/25 14:19:13;;;;;;;;;;;21.70;33.70;;;;;;4942962;29;19914;-61
2021/12/25 14:21:39;;;;;;;;;;;21.60;33.70;;;;;;4943581;28;19966;-61
2021/12/25 14:24:06;;;;;;;;;;;21.60;33.80;;;;;;4945772;28;19961;-61
2021/12/25 14:26:31;;;;;;;;;;;21.60;33.80;;;;;;4977771;28;19937;-61
2021/12/25 14:28:57;;;;;;;;;;;21.70;34.00;;;;;;4944496;28;20369;-61
2021/12/25 14:31:22;;;;;;;;;;;21.70;34.00;;;;;;4977743;28;20400;-61
2021/12/25 14:33:51;;;;;;;;;;;21.70;34.00;;;;;;4942726;28;19914;-61
2021/12/25 14:36:16;;;;;;;;;;;21.70;34.00;;;;;;4944130;28;19941;-61
2021/12/25 14:38:43;;;;;;;;;;;21.70;34.10;;;;;;4947050;29;19915;-61
2021/12/25 14:41:09;;;;;;;;;;;21.70;34.10;;;;;;4946359;28;19918;-61
2021/12/25 14:43:35;;;;;;;;;;;21.70;34.10;;;;;;4944829;28;19921;-61
2021/12/25 14:46:00;;;;;;;;;;;21.70;34.20;;;;;;4947008;28;19914;-61
2021/12/25 14:48:30;;;;;;;;;;;21.60;34.10;;;;;;4976320;28;19915;-61
2021/12/25 14:51:00;;;;;;;;;;;21.70;34.20;;;;;;4974634;28;19918;-61
2021/12/25 14:53:27;;;;;;;;;;;21.70;34.20;;;;;;4977040;28;19922;-61
2021/12/25 14:55:57;;;;;;;;;;;21.60;34.20;;;;;;4943809;29;19993;-61
2021/12/25 14:58:24;;;;;;;;;;;21.60;34.20;;;;;;4951793;28;19918;-61
2021/12/25 15:00:51;;;;;;;;;;;21.60;34.20;;;;;;4975436;28;19919;-61
2021/12/25 15:03:17;;;;;;;;;;;21.60;34.30;;;;;;4945767;28;19914;-61
2021/12/25 15:05:44;;;;;;;;;;;21.60;34.40;;;;;;4942360;28;20358;-61
2021/12/25 15:08:25;;;;;;;;;;;21.60;34.40;;;;;;4945004;28;19915;-61
2021/12/25 15:10:51;;;;;;;;;;;21.60;34.40;;;;;;4941211;29;20342;-61
2021/12/25 15:13:20;;;;;;;;;;;21.60;34.40;;;;;;4943991;28;19956;-61
2021/12/25 15:15:48;;;;;;;;;;;21.60;34.40;;;;;;4943927;29;19923;-61
2021/12/25 15:18:21;;;;;;;;;;;21.60;34.40;;;;;;4945306;29;19918;-62
2021/12/25 15:20:46;;;;;;;;;;;21.60;34.30;;;;;;4960202;28;19915;-62
2021/12/25 15:23:16;;;;;;;;;;;21.60;34.30;;;;;;4944047;29;20009;-61
2021/12/25 15:25:41;;;;;;;;;;;21.60;34.40;;;;;;4944193;28;19922;-62
2021/12/25 15:28:07;;;;;;;;;;;21.50;34.30;;;;;;4946361;28;19965;-61
2021/12/25 15:30:33;;;;;;;;;;;21.50;34.30;;;;;;4944130;28;19966;-61
2021/12/25 15:33:16;;;;;;;;;;;21.60;34.30;;;;;;4975797;28;19918;-61